Benson, AZ (85602)

5:19 PM MST on April 18, 2015 (GMT -0700)
Silverwood | | Change Station
CLOSE
Current Station
Personal Weather Station
Location: Benson, AZ
Elevation: 3655 ft
Nearby Weather Stations

Elev 3655 ft 31.96 °N, 110.29 °W | Updated 3 seconds ago

Clear
Clear
74.7 °F
Feels Like 75 °F
N
10.1
Wind Variable Wind from West
Gusts 12.0 mph

Today
High -- | Low -- °F
--% Chance of Precip.
Yesterday
High -- | Low -- °F
Precip. -- in
5:49 AM 6:52 PM
New Moon, 0% visible
Pressure 29.83 in
Visibility 10.0 miles
Clouds Clear
Heat Index 75 °F
Dew Point 17 °F
Humidity 11%
Rainfall 0.00 in
Snow Depth Not available.
UV 2 out of 12
Pollen 10.00 out of 12
Air Quality Not available.
Flu Activity Local Activity
METAR KALK 182356Z AUTO 29010KT 10SM CLR 21/M11 A3003 RMK AO2 SLP101 T02111106 10228 20189 56007

More Conditions Fewer Conditions

Pressure 29.83 in
Visibility 10.0 miles
Clouds Clear
Heat Index 75 °F
Dew Point 17 °F
Humidity 11%
Rainfall 0.00 in
Snow Depth Not available.
UV 2 out of 12
Pollen 10.00 out of 12
Air Quality Not available.
Flu Activity Local Activity
METAR KALK 182356Z AUTO 29010KT 10SM CLR 21/M11 A3003 RMK AO2 SLP101 T02111106 10228 20189 56007

More Conditions Fewer Conditions

10-Day Weather Forecast

Almanac

Astronomy

Apr. 18, 2015 Rise Set
Actual Time
Civil Twilight
Nautical Twilight
Astronomical Twilight
Moon
Length of Visible Light
Length of Day
Tomorrow will be .
, % of the Moon is Illuminated

Today's Extremes

State Highs State Lows

Community

WunderPhotos

Upload Photos

1,814,592 photos uploaded!

WunderBlogs® & News

Nearby

Air Quality

  Air Quality AQ Index Pollutant
Not available.

Snow Depth

Station Depth Elevation

Earthquake Activity

City Distance Mag. Time & Date
Minimum magnitude displayed is 2.5.

Coastal Water Temperatures

Place Temperature

Stations

Nearby Weather Stations

Station Location Temp. Windchill Dew Point Humidity Wind Precip. Elev Updated Type